sensor_id;sensor_type;location;lat;lon;timestamp;pressure;altitude;pressure_sealevel;temperature;humidity
7109;BME280;29079;41.930;25.558;2023-01-28T00:02:16;98888.59;;;1.79;100.00
7109;BME280;29079;41.930;25.558;2023-01-28T00:04:49;98887.75;;;1.78;100.00
7109;BME280;29079;41.930;25.558;2023-01-28T00:07:24;98896.03;;;1.72;100.00
7109;BME280;29079;41.930;25.558;2023-01-28T00:09:57;98840.34;;;1.36;100.00
7109;BME280;29079;41.930;25.558;2023-01-28T00:12:31;98897.53;;;1.62;100.00
7109;BME280;29079;41.930;25.558;2023-01-28T00:15:05;98900.28;;;1.60;100.00
7109;BME280;29079;41.930;25.558;2023-01-28T00:17:40;98909.94;;;1.60;100.00
7109;BME280;29079;41.930;25.558;2023-01-28T00:20:14;98908.72;;;1.65;100.00
7109;BME280;29079;41.930;25.558;2023-01-28T00:22:48;98914.34;;;1.59;100.00
7109;BME280;29079;41.930;25.558;2023-01-28T00:25:23;98911.53;;;1.48;100.00
7109;BME280;29079;41.930;25.558;2023-01-28T00:27:56;98899.78;;;1.39;100.00
7109;BME280;29079;41.930;25.558;2023-01-28T00:30:29;98915.03;;;1.48;100.00
7109;BME280;29079;41.930;25.558;2023-01-28T00:33:04;98916.88;;;1.46;100.00
7109;BME280;29079;41.930;25.558;2023-01-28T00:35:37;98920.63;;;1.42;100.00
7109;BME280;29079;41.930;25.558;2023-01-28T00:38:11;98916.69;;;1.35;100.00
7109;BME280;29079;41.930;25.558;2023-01-28T00:40:44;98924.22;;;1.41;100.00
7109;BME280;29079;41.930;25.558;2023-01-28T00:43:18;98932.38;;;1.36;100.00
7109;BME280;29079;41.930;25.558;2023-01-28T00:45:51;98929.00;;;1.34;100.00
7109;BME280;29079;41.930;25.558;2023-01-28T00:48:26;98936.31;;;1.29;100.00
7109;BME280;29079;41.930;25.558;2023-01-28T00:50:59;98927.13;;;1.22;100.00
7109;BME280;29079;41.930;25.558;2023-01-28T00:53:33;98928.50;;;1.28;100.00
7109;BME280;29079;41.930;25.558;2023-01-28T00:56:10;98914.41;;;1.14;100.00
7109;BME280;29079;41.930;25.558;2023-01-28T00:58:44;98946.91;;;1.28;100.00
7109;BME280;29079;41.930;25.558;2023-01-28T01:01:21;98944.69;;;1.36;100.00
7109;BME280;29079;41.930;25.558;2023-01-28T01:03:56;98942.53;;;1.28;100.00
7109;BME280;29079;41.930;25.558;2023-01-28T01:06:36;98948.22;;;1.35;100.00
7109;BME280;29079;41.930;25.558;2023-01-28T01:09:10;98947.47;;;1.18;100.00
7109;BME280;29079;41.930;25.558;2023-01-28T01:11:45;98956.09;;;1.20;100.00
7109;BME280;29079;41.930;25.558;2023-01-28T01:14:19;98944.38;;;1.26;100.00
7109;BME280;29079;41.930;25.558;2023-01-28T01:16:52;98962.22;;;1.21;100.00
7109;BME280;29079;41.930;25.558;2023-01-28T01:19:27;98957.09;;;1.34;100.00
7109;BME280;29079;41.930;25.558;2023-01-28T01:22:01;98961.38;;;1.35;100.00
7109;BME280;29079;41.930;25.558;2023-01-28T01:24:34;98957.09;;;1.34;100.00
7109;BME280;29079;41.930;25.558;2023-01-28T01:27:08;98950.69;;;1.24;100.00
7109;BME280;29079;41.930;25.558;2023-01-28T01:29:41;98957.28;;;1.31;100.00
7109;BME280;29079;41.930;25.558;2023-01-28T01:32:14;98961.38;;;1.35;100.00
7109;BME280;29079;41.930;25.558;2023-01-28T01:34:50;98966.91;;;1.30;100.00
7109;BME280;29079;41.930;25.558;2023-01-28T01:37:24;98961.09;;;1.25;100.00
7109;BME280;29079;41.930;25.558;2023-01-28T01:39:58;98970.75;;;1.25;100.00
7109;BME280;29079;41.930;25.558;2023-01-28T01:42:33;98970.47;;;1.29;100.00
7109;BME280;29079;41.930;25.558;2023-01-28T01:45:10;98971.75;;;1.38;100.00
7109;BME280;29079;41.930;25.558;2023-01-28T01:47:47;98972.28;;;1.29;100.00
7109;BME280;29079;41.930;25.558;2023-01-28T01:50:30;98978.47;;;1.28;100.00
7109;BME280;29079;41.930;25.558;2023-01-28T01:53:08;98976.00;;;1.25;100.00
7109;BME280;29079;41.930;25.558;2023-01-28T01:55:46;98959.31;;;1.26;100.00
7109;BME280;29079;41.930;25.558;2023-01-28T01:58:23;98981.00;;;1.29;100.00
7109;BME280;29079;41.930;25.558;2023-01-28T02:00:58;98977.81;;;1.24;100.00
7109;BME280;29079;41.930;25.558;2023-01-28T02:03:37;98982.22;;;1.24;100.00
7109;BME280;29079;41.930;25.558;2023-01-28T02:06:17;98981.47;;;1.21;100.00
7109;BME280;29079;41.930;25.558;2023-01-28T02:08:53;98966.72;;;1.19;100.00
7109;BME280;29079;41.930;25.558;2023-01-28T02:11:30;98984.94;;;1.36;100.00
7109;BME280;29079;41.930;25.558;2023-01-28T02:14:05;98986.44;;;1.26;100.00
7109;BME280;29079;41.930;25.558;2023-01-28T02:16:39;98987.94;;;1.30;100.00
7109;BME280;29079;41.930;25.558;2023-01-28T02:19:12;98985.59;;;1.26;100.00
7109;BME280;29079;41.930;25.558;2023-01-28T02:22:07;98985.00;;;1.20;100.00
7109;BME280;29079;41.930;25.558;2023-01-28T02:25:01;99006.25;;;1.32;100.00
7109;BME280;29079;41.930;25.558;2023-01-28T02:30:43;99007.94;;;1.18;100.00
7109;BME280;29079;41.930;25.558;2023-01-28T02:33:26;99016.41;;;1.24;100.00
7109;BME280;29079;41.930;25.558;2023-01-28T02:36:11;99008.84;;;1.17;100.00
7109;BME280;29079;41.930;25.558;2023-01-28T02:38:48;99019.06;;;1.08;100.00
7109;BME280;29079;41.930;25.558;2023-01-28T02:41:31;99016.53;;;1.06;100.00
7109;BME280;29079;41.930;25.558;2023-01-28T02:44:08;99013.09;;;1.20;100.00
7109;BME280;29079;41.930;25.558;2023-01-28T02:46:42;99010.91;;;1.12;100.00
7109;BME280;29079;41.930;25.558;2023-01-28T02:49:36;99008.47;;;1.09;100.00
7109;BME280;29079;41.930;25.558;2023-01-28T02:52:37;99004.88;;;1.10;100.00
7109;BME280;29079;41.930;25.558;2023-01-28T02:55:37;99008.66;;;1.06;100.00
7109;BME280;29079;41.930;25.558;2023-01-28T02:58:17;99019.00;;;1.09;100.00
7109;BME280;29079;41.930;25.558;2023-01-28T03:01:02;99015.41;;;1.10;100.00
7109;BME280;29079;41.930;25.558;2023-01-28T03:03:47;99019.72;;;1.11;100.00
7109;BME280;29079;41.930;25.558;2023-01-28T03:06:27;99026.31;;;1.18;100.00
7109;BME280;29079;41.930;25.558;2023-01-28T03:09:04;99031.16;;;1.10;100.00
7109;BME280;29079;41.930;25.558;2023-01-28T03:12:04;99024.44;;;1.06;100.00
7109;BME280;29079;41.930;25.558;2023-01-28T03:14:59;99026.78;;;1.11;100.00
7109;BME280;29079;41.930;25.558;2023-01-28T03:17:58;99020.69;;;1.25;100.00
7109;BME280;29079;41.930;25.558;2023-01-28T03:20:56;99009.22;;;1.11;100.00
7109;BME280;29079;41.930;25.558;2023-01-28T03:23:55;99025.03;;;1.26;100.00
7109;BME280;29079;41.930;25.558;2023-01-28T03:26:54;99035.63;;;1.24;100.00
7109;BME280;29079;41.930;25.558;2023-01-28T03:29:47;99023.88;;;1.15;100.00
7109;BME280;29079;41.930;25.558;2023-01-28T03:32:40;99036.25;;;1.13;100.00
7109;BME280;29079;41.930;25.558;2023-01-28T03:35:34;99040.16;;;1.22;100.00
7109;BME280;29079;41.930;25.558;2023-01-28T03:38:26;99040.75;;;1.11;100.00
7109;BME280;29079;41.930;25.558;2023-01-28T03:41:19;99012.72;;;0.96;100.00
7109;BME280;29079;41.930;25.558;2023-01-28T03:43:53;99025.81;;;1.12;100.00
7109;BME280;29079;41.930;25.558;2023-01-28T03:46:27;99026.50;;;1.15;100.00
7109;BME280;29079;41.930;25.558;2023-01-28T03:49:00;99031.22;;;1.25;100.00
7109;BME280;29079;41.930;25.558;2023-01-28T03:51:35;99030.94;;;1.15;100.00
7109;BME280;29079;41.930;25.558;2023-01-28T03:54:09;99033.09;;;1.23;100.00
7109;BME280;29079;41.930;25.558;2023-01-28T03:56:42;99029.97;;;1.16;100.00
7109;BME280;29079;41.930;25.558;2023-01-28T03:59:15;99040.94;;;1.08;100.00
7109;BME280;29079;41.930;25.558;2023-01-28T04:01:48;99043.13;;;1.16;100.00
7109;BME280;29079;41.930;25.558;2023-01-28T04:04:22;99042.19;;;1.17;100.00
7109;BME280;29079;41.930;25.558;2023-01-28T04:06:57;99046.69;;;1.15;100.00
7109;BME280;29079;41.930;25.558;2023-01-28T04:09:30;99041.09;;;1.21;100.00
7109;BME280;29079;41.930;25.558;2023-01-28T04:12:05;99036.66;;;1.21;100.00
7109;BME280;29079;41.930;25.558;2023-01-28T04:14:39;99040.31;;;1.19;100.00
7109;BME280;29079;41.930;25.558;2023-01-28T04:17:13;99046.16;;;1.24;100.00
7109;BME280;29079;41.930;25.558;2023-01-28T04:19:46;99059.22;;;1.26;100.00
7109;BME280;29079;41.930;25.558;2023-01-28T04:22:21;99045.78;;;1.30;100.00
7109;BME280;29079;41.930;25.558;2023-01-28T04:24:55;99051.72;;;1.34;100.00
7109;BME280;29079;41.930;25.558;2023-01-28T04:27:28;99067.00;;;1.27;100.00
7109;BME280;29079;41.930;25.558;2023-01-28T04:30:01;99066.94;;;1.13;100.00
7109;BME280;29079;41.930;25.558;2023-01-28T04:32:35;99073.81;;;1.15;100.00
7109;BME280;29079;41.930;25.558;2023-01-28T04:35:09;99065.00;;;1.16;100.00
7109;BME280;29079;41.930;25.558;2023-01-28T04:37:44;99067.84;;;1.28;100.00
7109;BME280;29079;41.930;25.558;2023-01-28T04:40:18;99076.69;;;1.27;100.00
7109;BME280;29079;41.930;25.558;2023-01-28T04:42:55;99073.81;;;1.15;100.00
7109;BME280;29079;41.930;25.558;2023-01-28T04:45:28;99075.91;;;1.25;100.00
7109;BME280;29079;41.930;25.558;2023-01-28T04:48:02;99077.69;;;1.24;100.00
7109;BME280;29079;41.930;25.558;2023-01-28T04:50:35;99078.22;;;1.31;100.00
7109;BME280;29079;41.930;25.558;2023-01-28T04:53:11;99078.22;;;1.31;100.00
7109;BME280;29079;41.930;25.558;2023-01-28T04:55:44;99076.69;;;1.27;100.00
7109;BME280;29079;41.930;25.558;2023-01-28T04:58:19;99070.09;;;1.19;100.00
7109;BME280;29079;41.930;25.558;2023-01-28T05:00:55;99075.91;;;1.25;100.00
7109;BME280;29079;41.930;25.558;2023-01-28T05:03:29;99083.78;;;1.25;100.00
7109;BME280;29079;41.930;25.558;2023-01-28T05:06:02;99082.13;;;1.24;100.00
7109;BME280;29079;41.930;25.558;2023-01-28T05:08:37;99084.66;;;1.25;100.00
7109;BME280;29079;41.930;25.558;2023-01-28T05:11:10;99094.22;;;1.26;100.00
7109;BME280;29079;41.930;25.558;2023-01-28T05:13:44;99094.72;;;1.33;100.00
7109;BME280;29079;41.930;25.558;2023-01-28T05:16:18;99099.94;;;1.18;100.00
7109;BME280;29079;41.930;25.558;2023-01-28T05:18:51;99047.50;;;0.85;100.00
7109;BME280;29079;41.930;25.558;2023-01-28T05:21:25;99106.84;;;1.35;100.00
7109;BME280;29079;41.930;25.558;2023-01-28T05:24:00;99118.56;;;1.30;100.00
7109;BME280;29079;41.930;25.558;2023-01-28T05:26:33;99116.97;;;1.27;100.00
7109;BME280;29079;41.930;25.558;2023-01-28T05:29:08;99114.22;;;1.29;100.00
7109;BME280;29079;41.930;25.558;2023-01-28T05:31:41;99115.75;;;1.33;100.00
7109;BME280;29079;41.930;25.558;2023-01-28T05:34:15;99128.06;;;1.32;100.00
7109;BME280;29079;41.930;25.558;2023-01-28T05:36:48;99120.28;;;1.31;100.00
7109;BME280;29079;41.930;25.558;2023-01-28T05:39:23;99123.06;;;1.28;100.00
7109;BME280;29079;41.930;25.558;2023-01-28T05:41:57;99106.53;;;1.26;100.00
7109;BME280;29079;41.930;25.558;2023-01-28T05:44:30;99133.63;;;1.42;100.00
7109;BME280;29079;41.930;25.558;2023-01-28T05:47:04;99132.38;;;1.33;100.00
7109;BME280;29079;41.930;25.558;2023-01-28T05:49:37;99125.34;;;1.34;100.00
7109;BME280;29079;41.930;25.558;2023-01-28T05:52:10;99127.28;;;1.30;100.00
7109;BME280;29079;41.930;25.558;2023-01-28T05:54:45;99118.38;;;1.33;100.00
7109;BME280;29079;41.930;25.558;2023-01-28T05:57:19;99138.97;;;1.41;100.00
7109;BME280;29079;41.930;25.558;2023-01-28T05:59:52;99140.09;;;1.36;100.00
7109;BME280;29079;41.930;25.558;2023-01-28T06:02:26;99146.22;;;1.37;100.00
7109;BME280;29079;41.930;25.558;2023-01-28T06:04:59;99137.72;;;1.32;100.00
7109;BME280;29079;41.930;25.558;2023-01-28T06:07:33;99151.94;;;1.44;100.00
7109;BME280;29079;41.930;25.558;2023-01-28T06:10:09;99159.91;;;1.42;100.00
7109;BME280;29079;41.930;25.558;2023-01-28T06:12:42;99158.06;;;1.44;100.00
7109;BME280;29079;41.930;25.558;2023-01-28T06:15:15;99161.28;;;1.49;100.00
7109;BME280;29079;41.930;25.558;2023-01-28T06:17:49;99173.03;;;1.58;100.00
7109;BME280;29079;41.930;25.558;2023-01-28T06:20:23;99175.50;;;1.61;100.00
7109;BME280;29079;41.930;25.558;2023-01-28T06:22:56;99174.47;;;1.64;100.00
7109;BME280;29079;41.930;25.558;2023-01-28T06:25:30;99169.06;;;1.51;100.00
7109;BME280;29079;41.930;25.558;2023-01-28T06:28:04;99177.19;;;1.62;100.00
7109;BME280;29079;41.930;25.558;2023-01-28T06:30:37;99183.47;;;1.60;100.00
7109;BME280;29079;41.930;25.558;2023-01-28T06:33:12;99184.34;;;1.60;100.00
7109;BME280;29079;41.930;25.558;2023-01-28T06:35:45;99193.50;;;1.69;100.00
7109;BME280;29079;41.930;25.558;2023-01-28T06:38:19;99190.44;;;1.61;100.00
7109;BME280;29079;41.930;25.558;2023-01-28T06:40:54;99192.97;;;1.62;100.00
7109;BME280;29079;41.930;25.558;2023-01-28T06:43:29;99205.63;;;1.71;100.00
7109;BME280;29079;41.930;25.558;2023-01-28T06:46:02;99207.81;;;1.79;100.00
7109;BME280;29079;41.930;25.558;2023-01-28T06:48:35;99203.06;;;1.70;100.00
7109;BME280;29079;41.930;25.558;2023-01-28T06:51:09;99202.03;;;1.72;100.00
7109;BME280;29079;41.930;25.558;2023-01-28T06:53:43;99212.16;;;1.80;100.00
7109;BME280;29079;41.930;25.558;2023-01-28T06:56:18;99210.34;;;1.81;100.00
7109;BME280;29079;41.930;25.558;2023-01-28T06:58:51;99218.69;;;1.73;100.00
7109;BME280;29079;41.930;25.558;2023-01-28T07:01:24;99221.22;;;1.74;100.00
7109;BME280;29079;41.930;25.558;2023-01-28T07:03:58;99224.88;;;1.72;100.00
7109;BME280;29079;41.930;25.558;2023-01-28T07:06:32;99226.78;;;1.84;100.00
7109;BME280;29079;41.930;25.558;2023-01-28T07:09:06;99219.63;;;1.72;100.00
7109;BME280;29079;41.930;25.558;2023-01-28T07:11:40;99242.19;;;1.76;100.00
7109;BME280;29079;41.930;25.558;2023-01-28T07:14:14;99239.19;;;1.82;100.00
7109;BME280;29079;41.930;25.558;2023-01-28T07:16:47;99239.81;;;1.87;100.00
7109;BME280;29079;41.930;25.558;2023-01-28T07:19:20;99248.88;;;1.82;100.00
7109;BME280;29079;41.930;25.558;2023-01-28T07:21:54;99232.78;;;1.72;100.00
7109;BME280;29079;41.930;25.558;2023-01-28T07:24:31;99261.09;;;1.83;100.00
7109;BME280;29079;41.930;25.558;2023-01-28T07:27:06;99261.50;;;1.91;100.00
7109;BME280;29079;41.930;25.558;2023-01-28T07:29:40;99258.78;;;1.92;100.00
7109;BME280;29079;41.930;25.558;2023-01-28T07:32:13;99262.69;;;1.85;100.00
7109;BME280;29079;41.930;25.558;2023-01-28T07:34:46;99260.66;;;1.90;100.00
7109;BME280;29079;41.930;25.558;2023-01-28T07:37:19;99240.63;;;1.88;100.00
7109;BME280;29079;41.930;25.558;2023-01-28T07:39:53;99252.69;;;1.92;100.00
7109;BME280;29079;41.930;25.558;2023-01-28T07:42:28;99260.13;;;2.00;100.00
7109;BME280;29079;41.930;25.558;2023-01-28T07:45:01;99260.13;;;2.00;100.00
7109;BME280;29079;41.930;25.558;2023-01-28T07:47:35;99262.50;;;2.04;100.00
7109;BME280;29079;41.930;25.558;2023-01-28T07:50:09;99267.00;;;2.02;100.00
7109;BME280;29079;41.930;25.558;2023-01-28T07:52:43;99272.38;;;2.01;100.00
7109;BME280;29079;41.930;25.558;2023-01-28T07:55:17;99275.91;;;2.00;100.00
7109;BME280;29079;41.930;25.558;2023-01-28T07:57:53;99282.94;;;2.15;100.00
7109;BME280;29079;41.930;25.558;2023-01-28T08:00:28;99284.28;;;2.22;100.00
7109;BME280;29079;41.930;25.558;2023-01-28T08:03:04;99285.22;;;2.21;100.00
7109;BME280;29079;41.930;25.558;2023-01-28T08:05:40;99287.16;;;2.18;100.00
7109;BME280;29079;41.930;25.558;2023-01-28T08:08:15;99288.22;;;2.15;100.00
7109;BME280;29079;41.930;25.558;2023-01-28T08:10:48;99291.03;;;2.26;100.00
7109;BME280;29079;41.930;25.558;2023-01-28T08:13:23;99302.53;;;2.25;100.00
7109;BME280;29079;41.930;25.558;2023-01-28T08:15:57;99298.94;;;2.26;100.00
7109;BME280;29079;41.930;25.558;2023-01-28T08:18:30;99313.06;;;2.25;100.00
7109;BME280;29079;41.930;25.558;2023-01-28T08:21:04;99310.16;;;2.30;100.00
7109;BME280;29079;41.930;25.558;2023-01-28T08:23:37;99309.16;;;2.33;100.00
7109;BME280;29079;41.930;25.558;2023-01-28T08:26:11;99315.25;;;2.33;100.00
7109;BME280;29079;41.930;25.558;2023-01-28T08:28:45;99319.13;;;2.42;100.00
7109;BME280;29079;41.930;25.558;2023-01-28T08:31:22;99320.84;;;2.43;100.00
7109;BME280;29079;41.930;25.558;2023-01-28T08:33:55;99324.03;;;2.48;100.00
7109;BME280;29079;41.930;25.558;2023-01-28T08:36:31;99321.41;;;2.48;100.00
7109;BME280;29079;41.930;25.558;2023-01-28T08:39:05;99322.81;;;2.54;100.00
7109;BME280;29079;41.930;25.558;2023-01-28T08:41:38;99327.66;;;2.61;100.00
7109;BME280;29079;41.930;25.558;2023-01-28T08:44:13;99329.00;;;2.69;100.00
7109;BME280;29079;41.930;25.558;2023-01-28T08:46:46;99330.47;;;2.73;100.00
7109;BME280;29079;41.930;25.558;2023-01-28T08:49:20;99341.59;;;2.64;100.00
7109;BME280;29079;41.930;25.558;2023-01-28T08:51:54;99327.75;;;2.60;100.00
7109;BME280;29079;41.930;25.558;2023-01-28T08:54:27;99330.22;;;2.77;100.00
7109;BME280;29079;41.930;25.558;2023-01-28T08:57:01;99326.91;;;2.74;100.00
7109;BME280;29079;41.930;25.558;2023-01-28T08:59:36;99315.53;;;2.73;100.00
7109;BME280;29079;41.930;25.558;2023-01-28T09:02:16;99327.44;;;2.95;100.00
7109;BME280;29079;41.930;25.558;2023-01-28T09:05:02;99332.22;;;3.03;100.00
7109;BME280;29079;41.930;25.558;2023-01-28T09:07:37;99327.34;;;2.96;100.00
7109;BME280;29079;41.930;25.558;2023-01-28T09:10:10;99340.13;;;2.88;100.00
7109;BME280;29079;41.930;25.558;2023-01-28T09:12:44;99336.19;;;2.95;100.00
7109;BME280;29079;41.930;25.558;2023-01-28T09:15:19;99331.19;;;2.91;100.00
7109;BME280;29079;41.930;25.558;2023-01-28T09:17:56;99324.88;;;2.93;100.00
7109;BME280;29079;41.930;25.558;2023-01-28T09:20:30;99320.16;;;2.99;100.00
7109;BME280;29079;41.930;25.558;2023-01-28T09:23:05;99318.94;;;3.04;100.00
7109;BME280;29079;41.930;25.558;2023-01-28T09:25:39;99323.63;;;2.99;100.00
7109;BME280;29079;41.930;25.558;2023-01-28T09:28:12;99328.38;;;3.08;100.00
7109;BME280;29079;41.930;25.558;2023-01-28T09:30:47;99321.31;;;3.09;100.00
7109;BME280;29079;41.930;25.558;2023-01-28T09:33:21;99320.66;;;3.20;100.00
7109;BME280;29079;41.930;25.558;2023-01-28T09:35:54;99325.34;;;3.29;100.00
7109;BME280;29079;41.930;25.558;2023-01-28T09:38:28;99320.75;;;3.33;100.00
7109;BME280;29079;41.930;25.558;2023-01-28T09:41:07;99317.03;;;3.35;100.00
7109;BME280;29079;41.930;25.558;2023-01-28T09:43:56;99310.44;;;3.42;100.00
7109;BME280;29079;41.930;25.558;2023-01-28T09:46:35;99306.47;;;3.49;100.00
7109;BME280;29079;41.930;25.558;2023-01-28T09:49:17;99309.88;;;3.52;100.00
7109;BME280;29079;41.930;25.558;2023-01-28T09:51:53;99310.53;;;3.55;100.00
7109;BME280;29079;41.930;25.558;2023-01-28T09:54:34;99287.84;;;3.38;99.68
7109;BME280;29079;41.930;25.558;2023-01-28T09:57:16;99303.91;;;3.62;100.00
7109;BME280;29079;41.930;25.558;2023-01-28T09:59:51;99299.38;;;3.64;99.43
7109;BME280;29079;41.930;25.558;2023-01-28T10:02:29;99293.53;;;3.74;98.13
7109;BME280;29079;41.930;25.558;2023-01-28T10:05:15;99304.81;;;3.76;96.52
7109;BME280;29079;41.930;25.558;2023-01-28T10:07:55;99306.59;;;3.90;97.56
7109;BME280;29079;41.930;25.558;2023-01-28T10:10:37;99313.75;;;3.88;95.94
7109;BME280;29079;41.930;25.558;2023-01-28T10:13:25;99310.31;;;4.00;96.56
7109;BME280;29079;41.930;25.558;2023-01-28T10:16:11;99313.56;;;3.91;94.54
7109;BME280;29079;41.930;25.558;2023-01-28T10:18:54;99308.41;;;4.02;94.46
7109;BME280;29079;41.930;25.558;2023-01-28T10:21:32;99312.75;;;4.03;94.01
7109;BME280;29079;41.930;25.558;2023-01-28T10:24:13;99294.63;;;3.84;91.86
7109;BME280;29079;41.930;25.558;2023-01-28T10:26:50;99305.25;;;3.97;91.70
7109;BME280;29079;41.930;25.558;2023-01-28T10:29:26;99302.84;;;4.07;92.71
7109;BME280;29079;41.930;25.558;2023-01-28T10:32:05;99303.59;;;4.09;92.05
7109;BME280;29079;41.930;25.558;2023-01-28T10:34:47;99294.41;;;4.14;91.29
7109;BME280;29079;41.930;25.558;2023-01-28T10:37:20;99302.13;;;4.17;91.74
7109;BME280;29079;41.930;25.558;2023-01-28T10:39:57;99312.50;;;4.21;92.19
7109;BME280;29079;41.930;25.558;2023-01-28T10:42:33;99309.97;;;4.19;91.78
7109;BME280;29079;41.930;25.558;2023-01-28T10:45:15;99309.13;;;4.18;91.47
7109;BME280;29079;41.930;25.558;2023-01-28T10:47:53;99316.06;;;4.19;92.19
7109;BME280;29079;41.930;25.558;2023-01-28T10:50:30;99313.34;;;4.21;90.76
7109;BME280;29079;41.930;25.558;2023-01-28T10:53:05;99320.31;;;4.22;89.94
7109;BME280;29079;41.930;25.558;2023-01-28T10:55:48;99312.53;;;4.33;93.29
7109;BME280;29079;41.930;25.558;2023-01-28T10:58:23;99315.28;;;4.32;92.38
7109;BME280;29079;41.930;25.558;2023-01-28T11:01:00;99315.78;;;4.24;90.28
7109;BME280;29079;41.930;25.558;2023-01-28T11:03:35;99303.31;;;4.26;91.78
7109;BME280;29079;41.930;25.558;2023-01-28T11:06:23;99308.94;;;4.34;93.44
7109;BME280;29079;41.930;25.558;2023-01-28T11:08:56;99311.28;;;4.39;91.25
7109;BME280;29079;41.930;25.558;2023-01-28T11:11:38;99307.91;;;4.50;91.97
7109;BME280;29079;41.930;25.558;2023-01-28T11:14:17;99307.69;;;4.40;89.61
7109;BME280;29079;41.930;25.558;2023-01-28T11:16:53;99311.53;;;4.49;91.10
7109;BME280;29079;41.930;25.558;2023-01-28T11:19:32;99303.78;;;4.46;90.23
7109;BME280;29079;41.930;25.558;2023-01-28T11:22:22;99280.72;;;4.35;89.81
7109;BME280;29079;41.930;25.558;2023-01-28T11:24:57;99297.66;;;4.45;89.39
7109;BME280;29079;41.930;25.558;2023-01-28T11:27:32;99296.41;;;4.51;87.21
7109;BME280;29079;41.930;25.558;2023-01-28T11:30:20;99300.94;;;4.49;86.57
7109;BME280;29079;41.930;25.558;2023-01-28T11:32:56;99298.41;;;4.47;86.30
7109;BME280;29079;41.930;25.558;2023-01-28T11:35:31;99304.94;;;4.42;85.16
7109;BME280;29079;41.930;25.558;2023-01-28T11:38:10;99306.34;;;4.47;86.02
7109;BME280;29079;41.930;25.558;2023-01-28T11:40:49;99303.03;;;4.44;85.79
7109;BME280;29079;41.930;25.558;2023-01-28T11:43:24;99302.00;;;4.46;86.23
7109;BME280;29079;41.930;25.558;2023-01-28T11:46:17;99299.69;;;4.55;86.57
7109;BME280;29079;41.930;25.558;2023-01-28T11:49:01;99299.88;;;4.51;86.74
7109;BME280;29079;41.930;25.558;2023-01-28T11:51:41;99286.88;;;4.48;85.73
7109;BME280;29079;41.930;25.558;2023-01-28T11:54:31;99298.09;;;4.52;86.05
7109;BME280;29079;41.930;25.558;2023-01-28T11:57:17;99298.00;;;4.53;86.35
7109;BME280;29079;41.930;25.558;2023-01-28T12:00:02;99301.81;;;4.62;86.26
7109;BME280;29079;41.930;25.558;2023-01-28T12:02:49;99304.03;;;4.68;86.16
7109;BME280;29079;41.930;25.558;2023-01-28T12:05:45;99304.13;;;4.67;86.58
7109;BME280;29079;41.930;25.558;2023-01-28T12:08:22;99307.94;;;4.76;87.62
7109;BME280;29079;41.930;25.558;2023-01-28T12:11:16;99310.59;;;4.76;86.50
7109;BME280;29079;41.930;25.558;2023-01-28T12:14:21;99310.28;;;4.80;86.03
7109;BME280;29079;41.930;25.558;2023-01-28T12:17:07;99311.53;;;4.87;85.89
7109;BME280;29079;41.930;25.558;2023-01-28T12:19:55;99307.97;;;4.88;84.18
7109;BME280;29079;41.930;25.558;2023-01-28T12:22:48;99311.75;;;4.84;85.11
7109;BME280;29079;41.930;25.558;2023-01-28T12:25:43;99313.03;;;4.92;86.79
7109;BME280;29079;41.930;25.558;2023-01-28T12:28:37;99320.13;;;4.91;85.69
7109;BME280;29079;41.930;25.558;2023-01-28T12:32:08;99295.91;;;4.84;85.38
7109;BME280;29079;41.930;25.558;2023-01-28T12:35:10;99322.00;;;4.89;81.38
7109;BME280;29079;41.930;25.558;2023-01-28T12:38:04;99330.06;;;4.87;79.53
7109;BME280;29079;41.930;25.558;2023-01-28T12:40:54;99329.94;;;4.89;81.50
7109;BME280;29079;41.930;25.558;2023-01-28T12:43:46;99326.97;;;4.94;81.45
7109;BME280;29079;41.930;25.558;2023-01-28T12:46:37;99326.47;;;5.01;79.30
7109;BME280;29079;41.930;25.558;2023-01-28T12:49:16;99322.84;;;5.02;80.67
7109;BME280;29079;41.930;25.558;2023-01-28T12:51:58;99324.56;;;5.03;81.67
7109;BME280;29079;41.930;25.558;2023-01-28T12:54:38;99328.69;;;5.08;80.56
7109;BME280;29079;41.930;25.558;2023-01-28T12:57:20;99329.63;;;5.06;80.58
7109;BME280;29079;41.930;25.558;2023-01-28T13:00:05;99330.38;;;5.09;81.46
7109;BME280;29079;41.930;25.558;2023-01-28T13:02:50;99343.06;;;5.03;80.64
7109;BME280;29079;41.930;25.558;2023-01-28T13:05:27;99344.56;;;5.08;81.03
7109;BME280;29079;41.930;25.558;2023-01-28T13:08:10;99350.28;;;5.01;80.23
7109;BME280;29079;41.930;25.558;2023-01-28T13:10:45;99340.53;;;5.02;79.00
7109;BME280;29079;41.930;25.558;2023-01-28T13:13:26;99342.44;;;5.00;80.51
7109;BME280;29079;41.930;25.558;2023-01-28T13:16:04;99353.66;;;5.03;81.30
7109;BME280;29079;41.930;25.558;2023-01-28T13:18:44;99357.25;;;5.02;82.94
7109;BME280;29079;41.930;25.558;2023-01-28T13:21:29;99310.69;;;4.74;83.34
7109;BME280;29079;41.930;25.558;2023-01-28T13:24:29;99359.25;;;4.99;82.64
7109;BME280;29079;41.930;25.558;2023-01-28T13:27:11;99349.63;;;4.85;83.62
7109;BME280;29079;41.930;25.558;2023-01-28T13:29:47;99360.94;;;4.87;84.66
7109;BME280;29079;41.930;25.558;2023-01-28T13:32:31;99374.06;;;4.88;82.63
7109;BME280;29079;41.930;25.558;2023-01-28T13:37:55;99374.16;;;4.87;82.94
7109;BME280;29079;41.930;25.558;2023-01-28T13:40:29;99383.25;;;4.83;83.37
7109;BME280;29079;41.930;25.558;2023-01-28T13:43:04;99371.09;;;4.80;82.45
7109;BME280;29079;41.930;25.558;2023-01-28T13:45:38;99391.41;;;4.80;84.59
7109;BME280;29079;41.930;25.558;2023-01-28T13:48:22;99393.38;;;4.76;83.81
7109;BME280;29079;41.930;25.558;2023-01-28T13:50:59;99398.88;;;4.73;84.85
7109;BME280;29079;41.930;25.558;2023-01-28T13:53:39;99389.56;;;4.67;83.87
7109;BME280;29079;41.930;25.558;2023-01-28T13:56:20;99393.28;;;4.65;86.69
7109;BME280;29079;41.930;25.558;2023-01-28T14:08:37;99404.75;;;4.51;84.74
7109;BME280;29079;41.930;25.558;2023-01-28T14:11:39;99409.81;;;4.54;86.17
7109;BME280;29079;41.930;25.558;2023-01-28T14:14:49;99405.78;;;4.48;88.13
7109;BME280;29079;41.930;25.558;2023-01-28T14:17:34;99410.53;;;4.43;86.58